sensor_id;sensor_type;location;lat;lon;timestamp;P1;durP1;ratioP1;P2;durP2;ratioP2
17852;SDS011;9052;53.494;14.376;2023-03-31T00:00:51;16.20;;;4.47;;
17852;SDS011;9052;53.494;14.376;2023-03-31T00:03:21;12.17;;;4.50;;
17852;SDS011;9052;53.494;14.376;2023-03-31T00:05:48;9.67;;;4.10;;
17852;SDS011;9052;53.494;14.376;2023-03-31T00:08:17;12.57;;;4.53;;
17852;SDS011;9052;53.494;14.376;2023-03-31T00:10:46;12.27;;;3.50;;
17852;SDS011;9052;53.494;14.376;2023-03-31T00:13:13;12.67;;;3.60;;
17852;SDS011;9052;53.494;14.376;2023-03-31T00:15:40;14.17;;;3.70;;
17852;SDS011;9052;53.494;14.376;2023-03-31T00:18:06;10.13;;;4.00;;
17852;SDS011;9052;53.494;14.376;2023-03-31T00:20:33;12.67;;;3.87;;
17852;SDS011;9052;53.494;14.376;2023-03-31T00:23:02;13.00;;;4.17;;
17852;SDS011;9052;53.494;14.376;2023-03-31T00:25:30;13.00;;;4.43;;
17852;SDS011;9052;53.494;14.376;2023-03-31T00:27:58;13.63;;;3.97;;
17852;SDS011;9052;53.494;14.376;2023-03-31T00:30:25;13.03;;;4.87;;
17852;SDS011;9052;53.494;14.376;2023-03-31T00:32:52;5.50;;;3.27;;
17852;SDS011;9052;53.494;14.376;2023-03-31T00:35:18;10.60;;;4.00;;
17852;SDS011;9052;53.494;14.376;2023-03-31T00:37:45;13.37;;;4.37;;
17852;SDS011;9052;53.494;14.376;2023-03-31T00:40:13;10.60;;;4.10;;
17852;SDS011;9052;53.494;14.376;2023-03-31T00:42:40;21.60;;;4.50;;
17852;SDS011;9052;53.494;14.376;2023-03-31T00:45:21;7.37;;;3.90;;
17852;SDS011;9052;53.494;14.376;2023-03-31T00:47:51;12.13;;;4.37;;
17852;SDS011;9052;53.494;14.376;2023-03-31T00:50:20;11.23;;;3.90;;
17852;SDS011;9052;53.494;14.376;2023-03-31T00:52:50;17.40;;;4.20;;
17852;SDS011;9052;53.494;14.376;2023-03-31T00:55:22;10.40;;;4.50;;
17852;SDS011;9052;53.494;14.376;2023-03-31T00:57:51;21.27;;;3.90;;
17852;SDS011;9052;53.494;14.376;2023-03-31T01:00:20;15.57;;;5.87;;
17852;SDS011;9052;53.494;14.376;2023-03-31T01:02:48;10.93;;;5.30;;
17852;SDS011;9052;53.494;14.376;2023-03-31T01:05:20;12.10;;;5.57;;
17852;SDS011;9052;53.494;14.376;2023-03-31T01:07:49;11.93;;;4.50;;
17852;SDS011;9052;53.494;14.376;2023-03-31T01:10:17;17.23;;;4.93;;
17852;SDS011;9052;53.494;14.376;2023-03-31T01:12:44;19.97;;;5.60;;
17852;SDS011;9052;53.494;14.376;2023-03-31T01:15:13;11.67;;;5.57;;
17852;SDS011;9052;53.494;14.376;2023-03-31T01:17:41;12.80;;;5.40;;
17852;SDS011;9052;53.494;14.376;2023-03-31T01:20:11;12.60;;;5.10;;
17852;SDS011;9052;53.494;14.376;2023-03-31T01:22:49;16.40;;;5.20;;
17852;SDS011;9052;53.494;14.376;2023-03-31T01:25:42;11.30;;;5.40;;
17852;SDS011;9052;53.494;14.376;2023-03-31T01:28:30;15.70;;;5.30;;
17852;SDS011;9052;53.494;14.376;2023-03-31T01:31:07;11.73;;;5.70;;
17852;SDS011;9052;53.494;14.376;2023-03-31T01:43:20;15.27;;;6.87;;
17852;SDS011;9052;53.494;14.376;2023-03-31T01:45:52;13.50;;;6.03;;
17852;SDS011;9052;53.494;14.376;2023-03-31T01:48:24;16.13;;;6.50;;
17852;SDS011;9052;53.494;14.376;2023-03-31T01:50:58;8.63;;;6.23;;
17852;SDS011;9052;53.494;14.376;2023-03-31T01:53:28;10.03;;;5.93;;
17852;SDS011;9052;53.494;14.376;2023-03-31T01:55:59;28.63;;;5.70;;
17852;SDS011;9052;53.494;14.376;2023-03-31T01:58:30;14.57;;;6.37;;
17852;SDS011;9052;53.494;14.376;2023-03-31T02:01:01;12.13;;;5.87;;
17852;SDS011;9052;53.494;14.376;2023-03-31T02:03:32;14.83;;;7.00;;
17852;SDS011;9052;53.494;14.376;2023-03-31T02:06:02;19.03;;;7.10;;
17852;SDS011;9052;53.494;14.376;2023-03-31T02:08:33;14.60;;;4.90;;
17852;SDS011;9052;53.494;14.376;2023-03-31T02:11:03;15.43;;;6.40;;
17852;SDS011;9052;53.494;14.376;2023-03-31T02:13:31;19.87;;;6.37;;
17852;SDS011;9052;53.494;14.376;2023-03-31T02:16:01;14.30;;;6.70;;
17852;SDS011;9052;53.494;14.376;2023-03-31T02:18:30;14.40;;;7.00;;
17852;SDS011;9052;53.494;14.376;2023-03-31T02:21:02;18.40;;;6.73;;
17852;SDS011;9052;53.494;14.376;2023-03-31T02:23:30;12.30;;;7.20;;
17852;SDS011;9052;53.494;14.376;2023-03-31T02:25:59;9.67;;;6.07;;
17852;SDS011;9052;53.494;14.376;2023-03-31T02:28:27;10.40;;;6.30;;
17852;SDS011;9052;53.494;14.376;2023-03-31T02:30:57;21.70;;;6.63;;
17852;SDS011;9052;53.494;14.376;2023-03-31T02:33:32;9.57;;;5.50;;
17852;SDS011;9052;53.494;14.376;2023-03-31T02:35:58;18.43;;;6.67;;
17852;SDS011;9052;53.494;14.376;2023-03-31T02:38:25;13.27;;;7.07;;
17852;SDS011;9052;53.494;14.376;2023-03-31T02:40:52;12.27;;;7.00;;
17852;SDS011;9052;53.494;14.376;2023-03-31T02:43:19;18.47;;;7.37;;
17852;SDS011;9052;53.494;14.376;2023-03-31T02:45:46;12.53;;;7.80;;
17852;SDS011;9052;53.494;14.376;2023-03-31T02:48:16;19.87;;;8.30;;
17852;SDS011;9052;53.494;14.376;2023-03-31T02:53:43;23.37;;;9.30;;
17852;SDS011;9052;53.494;14.376;2023-03-31T02:56:24;15.27;;;7.87;;
17852;SDS011;9052;53.494;14.376;2023-03-31T02:59:03;16.80;;;8.40;;
17852;SDS011;9052;53.494;14.376;2023-03-31T03:01:42;9.90;;;7.57;;
17852;SDS011;9052;53.494;14.376;2023-03-31T03:04:22;18.00;;;8.90;;
17852;SDS011;9052;53.494;14.376;2023-03-31T03:07:03;16.17;;;8.90;;
17852;SDS011;9052;53.494;14.376;2023-03-31T03:09:34;17.57;;;9.10;;
17852;SDS011;9052;53.494;14.376;2023-03-31T03:12:07;19.77;;;8.23;;
17852;SDS011;9052;53.494;14.376;2023-03-31T03:14:39;10.53;;;8.40;;
17852;SDS011;9052;53.494;14.376;2023-03-31T03:17:10;23.70;;;9.30;;
17852;SDS011;9052;53.494;14.376;2023-03-31T03:19:41;17.23;;;9.00;;
17852;SDS011;9052;53.494;14.376;2023-03-31T03:22:08;22.87;;;9.97;;
17852;SDS011;9052;53.494;14.376;2023-03-31T03:24:35;22.50;;;8.43;;
17852;SDS011;9052;53.494;14.376;2023-03-31T03:27:03;19.60;;;9.37;;
17852;SDS011;9052;53.494;14.376;2023-03-31T03:29:30;15.17;;;8.40;;
17852;SDS011;9052;53.494;14.376;2023-03-31T03:31:57;17.47;;;9.07;;
17852;SDS011;9052;53.494;14.376;2023-03-31T03:34:23;18.73;;;9.50;;
17852;SDS011;9052;53.494;14.376;2023-03-31T03:36:52;24.53;;;9.80;;
17852;SDS011;9052;53.494;14.376;2023-03-31T03:39:19;24.17;;;11.03;;
17852;SDS011;9052;53.494;14.376;2023-03-31T03:41:46;27.13;;;10.20;;
17852;SDS011;9052;53.494;14.376;2023-03-31T03:44:12;35.17;;;11.47;;
17852;SDS011;9052;53.494;14.376;2023-03-31T03:46:39;25.23;;;11.10;;
17852;SDS011;9052;53.494;14.376;2023-03-31T03:49:06;24.77;;;10.73;;
17852;SDS011;9052;53.494;14.376;2023-03-31T03:51:32;18.83;;;9.70;;
17852;SDS011;9052;53.494;14.376;2023-03-31T03:54:01;23.20;;;10.63;;
17852;SDS011;9052;53.494;14.376;2023-03-31T03:56:27;20.90;;;10.70;;
17852;SDS011;9052;53.494;14.376;2023-03-31T03:58:54;22.53;;;10.47;;
17852;SDS011;9052;53.494;14.376;2023-03-31T04:01:21;19.13;;;9.67;;
17852;SDS011;9052;53.494;14.376;2023-03-31T04:03:48;20.03;;;10.37;;
17852;SDS011;9052;53.494;14.376;2023-03-31T04:06:15;30.00;;;10.07;;
17852;SDS011;9052;53.494;14.376;2023-03-31T04:08:41;20.20;;;11.90;;
17852;SDS011;9052;53.494;14.376;2023-03-31T04:11:12;22.23;;;10.73;;
17852;SDS011;9052;53.494;14.376;2023-03-31T04:13:41;27.83;;;12.40;;
17852;SDS011;9052;53.494;14.376;2023-03-31T04:16:07;20.83;;;10.40;;
17852;SDS011;9052;53.494;14.376;2023-03-31T04:18:35;22.27;;;10.70;;
17852;SDS011;9052;53.494;14.376;2023-03-31T04:21:07;20.40;;;10.40;;
17852;SDS011;9052;53.494;14.376;2023-03-31T04:23:36;18.57;;;9.23;;
17852;SDS011;9052;53.494;14.376;2023-03-31T04:26:18;24.80;;;10.50;;
17852;SDS011;9052;53.494;14.376;2023-03-31T04:28:54;26.50;;;11.03;;
17852;SDS011;9052;53.494;14.376;2023-03-31T04:31:24;23.20;;;9.37;;
17852;SDS011;9052;53.494;14.376;2023-03-31T04:33:51;25.53;;;9.37;;
17852;SDS011;9052;53.494;14.376;2023-03-31T04:36:18;25.40;;;10.77;;
17852;SDS011;9052;53.494;14.376;2023-03-31T04:38:45;13.07;;;8.73;;
17852;SDS011;9052;53.494;14.376;2023-03-31T04:41:16;20.87;;;9.60;;
17852;SDS011;9052;53.494;14.376;2023-03-31T04:43:43;29.33;;;9.77;;
17852;SDS011;9052;53.494;14.376;2023-03-31T04:46:09;34.43;;;9.10;;
17852;SDS011;9052;53.494;14.376;2023-03-31T04:48:37;13.20;;;9.40;;
17852;SDS011;9052;53.494;14.376;2023-03-31T04:51:04;26.07;;;9.40;;
17852;SDS011;9052;53.494;14.376;2023-03-31T04:53:31;22.17;;;9.23;;
17852;SDS011;9052;53.494;14.376;2023-03-31T04:55:58;21.57;;;8.40;;
17852;SDS011;9052;53.494;14.376;2023-03-31T04:58:26;20.03;;;8.47;;
17852;SDS011;9052;53.494;14.376;2023-03-31T05:00:53;25.00;;;9.03;;
17852;SDS011;9052;53.494;14.376;2023-03-31T05:03:20;15.30;;;8.27;;
17852;SDS011;9052;53.494;14.376;2023-03-31T05:05:46;22.90;;;9.33;;
17852;SDS011;9052;53.494;14.376;2023-03-31T05:08:13;16.10;;;7.90;;
17852;SDS011;9052;53.494;14.376;2023-03-31T05:10:40;22.97;;;8.33;;
17852;SDS011;9052;53.494;14.376;2023-03-31T05:13:08;22.43;;;9.83;;
17852;SDS011;9052;53.494;14.376;2023-03-31T05:15:37;20.80;;;8.43;;
17852;SDS011;9052;53.494;14.376;2023-03-31T05:18:04;16.10;;;8.60;;
17852;SDS011;9052;53.494;14.376;2023-03-31T05:20:31;23.97;;;8.80;;
17852;SDS011;9052;53.494;14.376;2023-03-31T05:22:58;19.63;;;10.47;;
17852;SDS011;9052;53.494;14.376;2023-03-31T05:25:24;21.03;;;8.97;;
17852;SDS011;9052;53.494;14.376;2023-03-31T05:27:56;23.00;;;9.33;;
17852;SDS011;9052;53.494;14.376;2023-03-31T05:30:23;21.40;;;9.80;;
17852;SDS011;9052;53.494;14.376;2023-03-31T05:32:52;13.20;;;8.90;;
17852;SDS011;9052;53.494;14.376;2023-03-31T05:35:20;14.03;;;8.43;;
17852;SDS011;9052;53.494;14.376;2023-03-31T05:37:47;11.60;;;8.93;;
17852;SDS011;9052;53.494;14.376;2023-03-31T05:40:13;16.37;;;9.07;;
17852;SDS011;9052;53.494;14.376;2023-03-31T05:42:40;16.67;;;8.00;;
17852;SDS011;9052;53.494;14.376;2023-03-31T05:45:07;17.67;;;8.30;;
17852;SDS011;9052;53.494;14.376;2023-03-31T05:47:34;15.80;;;8.17;;
17852;SDS011;9052;53.494;14.376;2023-03-31T05:50:05;12.03;;;8.07;;
17852;SDS011;9052;53.494;14.376;2023-03-31T05:52:33;23.00;;;8.10;;
17852;SDS011;9052;53.494;14.376;2023-03-31T05:54:59;15.60;;;7.93;;
17852;SDS011;9052;53.494;14.376;2023-03-31T05:57:26;15.97;;;7.80;;
17852;SDS011;9052;53.494;14.376;2023-03-31T05:59:53;19.80;;;8.27;;
17852;SDS011;9052;53.494;14.376;2023-03-31T06:02:21;18.03;;;7.00;;
17852;SDS011;9052;53.494;14.376;2023-03-31T06:04:47;26.33;;;7.57;;
17852;SDS011;9052;53.494;14.376;2023-03-31T06:07:15;12.47;;;7.77;;
17852;SDS011;9052;53.494;14.376;2023-03-31T06:09:44;21.30;;;7.40;;
17852;SDS011;9052;53.494;14.376;2023-03-31T06:12:10;15.87;;;8.00;;
17852;SDS011;9052;53.494;14.376;2023-03-31T06:14:37;16.43;;;7.60;;
17852;SDS011;9052;53.494;14.376;2023-03-31T06:17:04;17.47;;;7.97;;
17852;SDS011;9052;53.494;14.376;2023-03-31T06:19:30;19.87;;;8.00;;
17852;SDS011;9052;53.494;14.376;2023-03-31T06:21:57;15.33;;;5.93;;
17852;SDS011;9052;53.494;14.376;2023-03-31T06:24:25;9.17;;;6.37;;
17852;SDS011;9052;53.494;14.376;2023-03-31T06:26:52;9.97;;;6.87;;
17852;SDS011;9052;53.494;14.376;2023-03-31T06:29:19;15.33;;;6.07;;
17852;SDS011;9052;53.494;14.376;2023-03-31T06:31:45;12.20;;;5.93;;
17852;SDS011;9052;53.494;14.376;2023-03-31T06:34:12;11.67;;;5.27;;
17852;SDS011;9052;53.494;14.376;2023-03-31T06:36:39;11.53;;;6.00;;
17852;SDS011;9052;53.494;14.376;2023-03-31T06:39:06;8.90;;;6.47;;
17852;SDS011;9052;53.494;14.376;2023-03-31T06:41:34;13.67;;;6.50;;
17852;SDS011;9052;53.494;14.376;2023-03-31T06:44:01;21.00;;;6.03;;
17852;SDS011;9052;53.494;14.376;2023-03-31T06:46:28;13.57;;;6.80;;
17852;SDS011;9052;53.494;14.376;2023-03-31T06:48:55;17.23;;;6.40;;
17852;SDS011;9052;53.494;14.376;2023-03-31T06:51:21;17.90;;;5.43;;
17852;SDS011;9052;53.494;14.376;2023-03-31T06:53:48;20.20;;;6.47;;
17852;SDS011;9052;53.494;14.376;2023-03-31T06:56:15;9.77;;;6.70;;
17852;SDS011;9052;53.494;14.376;2023-03-31T06:58:43;12.10;;;6.30;;
17852;SDS011;9052;53.494;14.376;2023-03-31T07:01:10;13.80;;;6.30;;
17852;SDS011;9052;53.494;14.376;2023-03-31T07:03:36;13.33;;;5.63;;
17852;SDS011;9052;53.494;14.376;2023-03-31T07:06:03;12.73;;;5.27;;
17852;SDS011;9052;53.494;14.376;2023-03-31T07:08:30;12.93;;;5.20;;
17852;SDS011;9052;53.494;14.376;2023-03-31T07:10:57;16.53;;;6.77;;
17852;SDS011;9052;53.494;14.376;2023-03-31T07:13:25;7.17;;;5.17;;
17852;SDS011;9052;53.494;14.376;2023-03-31T07:15:53;8.47;;;5.10;;
17852;SDS011;9052;53.494;14.376;2023-03-31T07:18:20;11.37;;;5.33;;
17852;SDS011;9052;53.494;14.376;2023-03-31T07:20:50;11.27;;;5.20;;
17852;SDS011;9052;53.494;14.376;2023-03-31T07:23:17;12.57;;;3.93;;
17852;SDS011;9052;53.494;14.376;2023-03-31T07:25:45;10.37;;;4.33;;
17852;SDS011;9052;53.494;14.376;2023-03-31T07:28:12;6.43;;;3.97;;
17852;SDS011;9052;53.494;14.376;2023-03-31T07:30:38;17.13;;;4.27;;
17852;SDS011;9052;53.494;14.376;2023-03-31T07:33:07;11.10;;;3.50;;
17852;SDS011;9052;53.494;14.376;2023-03-31T07:35:36;6.77;;;3.23;;
17852;SDS011;9052;53.494;14.376;2023-03-31T07:38:03;17.07;;;4.30;;
17852;SDS011;9052;53.494;14.376;2023-03-31T07:40:30;6.33;;;3.57;;
17852;SDS011;9052;53.494;14.376;2023-03-31T07:42:56;12.47;;;3.70;;
17852;SDS011;9052;53.494;14.376;2023-03-31T07:45:24;23.53;;;4.03;;
17852;SDS011;9052;53.494;14.376;2023-03-31T07:47:51;18.03;;;4.57;;
17852;SDS011;9052;53.494;14.376;2023-03-31T07:50:20;6.30;;;3.33;;
17852;SDS011;9052;53.494;14.376;2023-03-31T07:52:47;12.17;;;3.47;;
17852;SDS011;9052;53.494;14.376;2023-03-31T07:55:14;19.33;;;3.80;;
17852;SDS011;9052;53.494;14.376;2023-03-31T07:57:41;17.30;;;3.80;;
17852;SDS011;9052;53.494;14.376;2023-03-31T08:00:10;18.97;;;4.80;;
17852;SDS011;9052;53.494;14.376;2023-03-31T08:02:38;10.80;;;3.90;;
17852;SDS011;9052;53.494;14.376;2023-03-31T08:05:05;15.90;;;3.83;;
17852;SDS011;9052;53.494;14.376;2023-03-31T08:07:34;13.20;;;3.33;;
17852;SDS011;9052;53.494;14.376;2023-03-31T08:10:01;8.60;;;3.20;;
17852;SDS011;9052;53.494;14.376;2023-03-31T08:12:29;11.00;;;3.90;;
17852;SDS011;9052;53.494;14.376;2023-03-31T08:14:56;7.67;;;3.33;;
17852;SDS011;9052;53.494;14.376;2023-03-31T08:17:22;13.67;;;4.27;;
17852;SDS011;9052;53.494;14.376;2023-03-31T08:19:49;5.80;;;3.40;;
17852;SDS011;9052;53.494;14.376;2023-03-31T08:22:16;9.57;;;2.90;;
17852;SDS011;9052;53.494;14.376;2023-03-31T08:24:44;5.47;;;3.00;;
17852;SDS011;9052;53.494;14.376;2023-03-31T08:27:12;10.87;;;3.83;;
17852;SDS011;9052;53.494;14.376;2023-03-31T08:29:39;11.03;;;3.20;;
17852;SDS011;9052;53.494;14.376;2023-03-31T08:32:06;15.20;;;4.07;;
17852;SDS011;9052;53.494;14.376;2023-03-31T08:34:32;10.80;;;3.80;;
17852;SDS011;9052;53.494;14.376;2023-03-31T08:37:00;7.87;;;3.33;;
17852;SDS011;9052;53.494;14.376;2023-03-31T08:39:27;9.37;;;3.70;;
17852;SDS011;9052;53.494;14.376;2023-03-31T08:41:56;6.83;;;3.30;;
17852;SDS011;9052;53.494;14.376;2023-03-31T08:44:25;13.70;;;3.17;;
17852;SDS011;9052;53.494;14.376;2023-03-31T08:46:56;11.40;;;4.00;;
17852;SDS011;9052;53.494;14.376;2023-03-31T08:49:23;18.33;;;4.50;;
17852;SDS011;9052;53.494;14.376;2023-03-31T08:51:51;11.60;;;4.30;;
17852;SDS011;9052;53.494;14.376;2023-03-31T08:54:24;8.63;;;4.00;;
17852;SDS011;9052;53.494;14.376;2023-03-31T08:56:58;11.90;;;4.00;;
17852;SDS011;9052;53.494;14.376;2023-03-31T08:59:26;13.90;;;3.43;;
17852;SDS011;9052;53.494;14.376;2023-03-31T09:01:55;9.23;;;3.80;;
17852;SDS011;9052;53.494;14.376;2023-03-31T09:04:31;7.50;;;3.07;;
17852;SDS011;9052;53.494;14.376;2023-03-31T09:07:09;10.80;;;3.60;;
17852;SDS011;9052;53.494;14.376;2023-03-31T09:09:42;8.97;;;3.80;;
17852;SDS011;9052;53.494;14.376;2023-03-31T09:12:15;12.97;;;3.70;;
17852;SDS011;9052;53.494;14.376;2023-03-31T09:14:45;9.70;;;3.10;;
17852;SDS011;9052;53.494;14.376;2023-03-31T09:17:17;9.10;;;3.00;;
17852;SDS011;9052;53.494;14.376;2023-03-31T09:19:48;6.97;;;3.13;;
17852;SDS011;9052;53.494;14.376;2023-03-31T09:22:19;6.50;;;3.13;;
17852;SDS011;9052;53.494;14.376;2023-03-31T09:24:49;15.73;;;4.60;;
17852;SDS011;9052;53.494;14.376;2023-03-31T09:27:21;13.13;;;4.60;;
17852;SDS011;9052;53.494;14.376;2023-03-31T09:29:50;9.53;;;3.40;;
17852;SDS011;9052;53.494;14.376;2023-03-31T09:32:19;6.40;;;2.67;;
17852;SDS011;9052;53.494;14.376;2023-03-31T09:34:49;7.23;;;3.60;;
17852;SDS011;9052;53.494;14.376;2023-03-31T09:37:17;10.87;;;3.90;;
17852;SDS011;9052;53.494;14.376;2023-03-31T09:39:44;9.63;;;4.50;;
17852;SDS011;9052;53.494;14.376;2023-03-31T09:42:11;9.83;;;3.60;;
17852;SDS011;9052;53.494;14.376;2023-03-31T09:44:40;13.23;;;4.50;;
17852;SDS011;9052;53.494;14.376;2023-03-31T09:47:10;7.53;;;3.50;;
17852;SDS011;9052;53.494;14.376;2023-03-31T09:49:39;6.33;;;3.13;;
17852;SDS011;9052;53.494;14.376;2023-03-31T09:52:10;13.13;;;4.27;;
17852;SDS011;9052;53.494;14.376;2023-03-31T09:54:39;10.47;;;3.70;;
17852;SDS011;9052;53.494;14.376;2023-03-31T09:57:14;4.77;;;3.10;;
17852;SDS011;9052;53.494;14.376;2023-03-31T09:59:50;9.73;;;3.57;;
17852;SDS011;9052;53.494;14.376;2023-03-31T10:02:30;6.47;;;3.50;;
17852;SDS011;9052;53.494;14.376;2023-03-31T10:05:00;10.57;;;3.50;;
17852;SDS011;9052;53.494;14.376;2023-03-31T10:07:27;12.40;;;3.70;;
17852;SDS011;9052;53.494;14.376;2023-03-31T10:09:54;9.83;;;3.90;;
17852;SDS011;9052;53.494;14.376;2023-03-31T10:12:22;9.67;;;4.03;;
17852;SDS011;9052;53.494;14.376;2023-03-31T10:14:52;12.70;;;4.00;;
17852;SDS011;9052;53.494;14.376;2023-03-31T10:17:20;9.20;;;3.53;;
17852;SDS011;9052;53.494;14.376;2023-03-31T10:19:50;7.70;;;3.73;;
17852;SDS011;9052;53.494;14.376;2023-03-31T10:22:25;6.40;;;3.50;;
17852;SDS011;9052;53.494;14.376;2023-03-31T10:24:53;11.27;;;3.47;;
17852;SDS011;9052;53.494;14.376;2023-03-31T10:27:20;9.73;;;3.67;;
17852;SDS011;9052;53.494;14.376;2023-03-31T10:29:51;14.20;;;4.10;;
17852;SDS011;9052;53.494;14.376;2023-03-31T10:32:21;8.73;;;3.40;;
17852;SDS011;9052;53.494;14.376;2023-03-31T10:34:49;9.50;;;4.10;;
17852;SDS011;9052;53.494;14.376;2023-03-31T10:37:16;13.10;;;4.23;;
17852;SDS011;9052;53.494;14.376;2023-03-31T10:39:45;7.70;;;3.97;;
17852;SDS011;9052;53.494;14.376;2023-03-31T10:42:17;7.00;;;3.20;;
17852;SDS011;9052;53.494;14.376;2023-03-31T10:44:45;7.90;;;3.07;;
17852;SDS011;9052;53.494;14.376;2023-03-31T10:47:20;3.80;;;2.70;;
17852;SDS011;9052;53.494;14.376;2023-03-31T10:49:47;9.70;;;3.47;;
17852;SDS011;9052;53.494;14.376;2023-03-31T10:52:17;17.17;;;3.23;;
17852;SDS011;9052;53.494;14.376;2023-03-31T10:54:45;10.10;;;3.80;;
17852;SDS011;9052;53.494;14.376;2023-03-31T10:57:13;6.67;;;2.57;;
17852;SDS011;9052;53.494;14.376;2023-03-31T10:59:42;9.37;;;4.43;;
17852;SDS011;9052;53.494;14.376;2023-03-31T11:02:27;8.10;;;3.80;;
17852;SDS011;9052;53.494;14.376;2023-03-31T11:05:07;10.37;;;3.37;;
17852;SDS011;9052;53.494;14.376;2023-03-31T11:07:40;8.07;;;3.10;;
17852;SDS011;9052;53.494;14.376;2023-03-31T11:10:20;6.80;;;3.20;;
17852;SDS011;9052;53.494;14.376;2023-03-31T11:12:55;11.90;;;3.80;;
17852;SDS011;9052;53.494;14.376;2023-03-31T11:15:24;16.93;;;3.77;;
17852;SDS011;9052;53.494;14.376;2023-03-31T11:18:00;9.80;;;4.30;;
17852;SDS011;9052;53.494;14.376;2023-03-31T11:20:33;12.03;;;3.30;;
17852;SDS011;9052;53.494;14.376;2023-03-31T11:23:05;10.03;;;2.87;;
17852;SDS011;9052;53.494;14.376;2023-03-31T11:25:38;14.90;;;3.20;;
17852;SDS011;9052;53.494;14.376;2023-03-31T11:28:32;6.70;;;3.23;;
17852;SDS011;9052;53.494;14.376;2023-03-31T11:31:09;14.50;;;2.97;;
17852;SDS011;9052;53.494;14.376;2023-03-31T11:33:46;14.10;;;4.23;;
17852;SDS011;9052;53.494;14.376;2023-03-31T11:36:26;11.17;;;2.57;;
17852;SDS011;9052;53.494;14.376;2023-03-31T11:39:08;6.37;;;2.50;;
17852;SDS011;9052;53.494;14.376;2023-03-31T11:41:41;16.97;;;3.50;;
17852;SDS011;9052;53.494;14.376;2023-03-31T11:44:11;9.77;;;3.07;;
17852;SDS011;9052;53.494;14.376;2023-03-31T11:46:39;7.80;;;2.63;;
17852;SDS011;9052;53.494;14.376;2023-03-31T11:49:13;10.20;;;2.13;;
17852;SDS011;9052;53.494;14.376;2023-03-31T11:51:46;5.20;;;2.50;;
17852;SDS011;9052;53.494;14.376;2023-03-31T11:54:15;6.40;;;2.80;;
17852;SDS011;9052;53.494;14.376;2023-03-31T11:56:43;7.23;;;2.83;;
17852;SDS011;9052;53.494;14.376;2023-03-31T11:59:11;9.40;;;3.07;;
17852;SDS011;9052;53.494;14.376;2023-03-31T12:01:41;9.60;;;2.30;;
17852;SDS011;9052;53.494;14.376;2023-03-31T12:04:12;9.03;;;3.27;;
17852;SDS011;9052;53.494;14.376;2023-03-31T12:06:49;10.93;;;3.60;;
17852;SDS011;9052;53.494;14.376;2023-03-31T12:09:18;8.00;;;3.07;;
17852;SDS011;9052;53.494;14.376;2023-03-31T12:11:50;10.40;;;4.17;;
17852;SDS011;9052;53.494;14.376;2023-03-31T12:14:23;7.00;;;3.53;;
17852;SDS011;9052;53.494;14.376;2023-03-31T12:16:53;6.47;;;3.40;;
17852;SDS011;9052;53.494;14.376;2023-03-31T12:19:25;8.23;;;3.20;;
17852;SDS011;9052;53.494;14.376;2023-03-31T12:21:54;10.13;;;4.23;;
17852;SDS011;9052;53.494;14.376;2023-03-31T12:24:22;13.97;;;4.60;;
17852;SDS011;9052;53.494;14.376;2023-03-31T12:26:55;12.60;;;5.93;;
17852;SDS011;9052;53.494;14.376;2023-03-31T12:29:28;9.93;;;4.80;;
17852;SDS011;9052;53.494;14.376;2023-03-31T12:31:57;8.03;;;4.67;;
17852;SDS011;9052;53.494;14.376;2023-03-31T12:34:27;10.70;;;4.40;;
17852;SDS011;9052;53.494;14.376;2023-03-31T12:36:59;6.40;;;3.93;;
17852;SDS011;9052;53.494;14.376;2023-03-31T12:39:37;9.17;;;4.17;;
17852;SDS011;9052;53.494;14.376;2023-03-31T12:45:10;13.23;;;3.90;;
17852;SDS011;9052;53.494;14.376;2023-03-31T12:47:45;6.23;;;3.37;;
17852;SDS011;9052;53.494;14.376;2023-03-31T12:50:30;15.47;;;3.10;;
17852;SDS011;9052;53.494;14.376;2023-03-31T12:53:02;10.20;;;3.37;;
17852;SDS011;9052;53.494;14.376;2023-03-31T12:55:37;9.93;;;3.03;;
17852;SDS011;9052;53.494;14.376;2023-03-31T13:01:10;9.63;;;3.00;;
17852;SDS011;9052;53.494;14.376;2023-03-31T13:03:47;7.57;;;2.60;;
17852;SDS011;9052;53.494;14.376;2023-03-31T13:12:05;10.20;;;2.50;;
17852;SDS011;9052;53.494;14.376;2023-03-31T13:14:35;5.53;;;2.50;;
17852;SDS011;9052;53.494;14.376;2023-03-31T13:17:10;5.03;;;2.00;;
17852;SDS011;9052;53.494;14.376;2023-03-31T13:19:38;8.87;;;3.17;;
17852;SDS011;9052;53.494;14.376;2023-03-31T13:22:19;5.43;;;2.20;;
17852;SDS011;9052;53.494;14.376;2023-03-31T13:24:54;2.90;;;2.03;;
17852;SDS011;9052;53.494;14.376;2023-03-31T13:28:08;5.70;;;2.27;;
17852;SDS011;9052;53.494;14.376;2023-03-31T13:30:55;7.90;;;3.03;;
17852;SDS011;9052;53.494;14.376;2023-03-31T13:33:26;14.20;;;3.40;;
17852;SDS011;9052;53.494;14.376;2023-03-31T13:36:05;6.30;;;2.30;;
17852;SDS011;9052;53.494;14.376;2023-03-31T13:38:44;20.23;;;2.73;;
17852;SDS011;9052;53.494;14.376;2023-03-31T13:50:29;17.33;;;2.53;;
17852;SDS011;9052;53.494;14.376;2023-03-31T13:53:22;7.13;;;2.30;;
17852;SDS011;9052;53.494;14.376;2023-03-31T13:56:02;3.23;;;2.17;;
17852;SDS011;9052;53.494;14.376;2023-03-31T14:01:53;6.90;;;2.27;;
17852;SDS011;9052;53.494;14.376;2023-03-31T14:04:42;7.73;;;1.93;;
17852;SDS011;9052;53.494;14.376;2023-03-31T14:07:28;5.37;;;1.87;;
17852;SDS011;9052;53.494;14.376;2023-03-31T14:09:58;8.87;;;3.57;;
17852;SDS011;9052;53.494;14.376;2023-03-31T14:12:31;6.13;;;2.50;;
17852;SDS011;9052;53.494;14.376;2023-03-31T14:14:59;7.30;;;2.77;;
17852;SDS011;9052;53.494;14.376;2023-03-31T14:17:26;7.40;;;2.20;;
17852;SDS011;9052;53.494;14.376;2023-03-31T14:20:02;8.40;;;2.03;;
17852;SDS011;9052;53.494;14.376;2023-03-31T14:22:51;8.07;;;2.60;;
17852;SDS011;9052;53.494;14.376;2023-03-31T14:25:25;13.80;;;6.73;;
17852;SDS011;9052;53.494;14.376;2023-03-31T14:28:03;14.33;;;5.40;;
17852;SDS011;9052;53.494;14.376;2023-03-31T14:30:42;10.33;;;4.10;;
17852;SDS011;9052;53.494;14.376;2023-03-31T14:33:23;15.00;;;4.10;;
17852;SDS011;9052;53.494;14.376;2023-03-31T14:35:58;10.30;;;4.13;;
17852;SDS011;9052;53.494;14.376;2023-03-31T14:38:27;8.17;;;3.90;;
17852;SDS011;9052;53.494;14.376;2023-03-31T14:40:56;9.53;;;3.80;;
17852;SDS011;9052;53.494;14.376;2023-03-31T14:43:27;9.17;;;4.10;;
17852;SDS011;9052;53.494;14.376;2023-03-31T14:45:58;14.40;;;3.53;;
17852;SDS011;9052;53.494;14.376;2023-03-31T14:48:26;4.77;;;3.10;;
17852;SDS011;9052;53.494;14.376;2023-03-31T14:50:55;6.50;;;3.20;;
17852;SDS011;9052;53.494;14.376;2023-03-31T14:53:23;7.10;;;3.70;;
17852;SDS011;9052;53.494;14.376;2023-03-31T14:55:53;8.17;;;3.43;;
17852;SDS011;9052;53.494;14.376;2023-03-31T14:58:25;10.23;;;3.50;;
17852;SDS011;9052;53.494;14.376;2023-03-31T15:00:55;9.60;;;3.27;;
17852;SDS011;9052;53.494;14.376;2023-03-31T15:03:23;4.43;;;2.83;;
17852;SDS011;9052;53.494;14.376;2023-03-31T15:05:54;6.43;;;3.87;;
17852;SDS011;9052;53.494;14.376;2023-03-31T15:08:21;2.87;;;1.93;;
17852;SDS011;9052;53.494;14.376;2023-03-31T15:10:49;3.23;;;1.30;;
17852;SDS011;9052;53.494;14.376;2023-03-31T15:13:18;3.20;;;1.90;;
17852;SDS011;9052;53.494;14.376;2023-03-31T15:15:47;7.57;;;1.50;;
17852;SDS011;9052;53.494;14.376;2023-03-31T15:18:14;5.27;;;2.07;;
17852;SDS011;9052;53.494;14.376;2023-03-31T15:20:42;2.10;;;1.70;;
17852;SDS011;9052;53.494;14.376;2023-03-31T15:23:19;5.73;;;2.17;;
17852;SDS011;9052;53.494;14.376;2023-03-31T15:25:48;5.93;;;1.80;;
17852;SDS011;9052;53.494;14.376;2023-03-31T15:28:16;2.50;;;1.77;;
17852;SDS011;9052;53.494;14.376;2023-03-31T15:30:43;3.87;;;1.83;;
17852;SDS011;9052;53.494;14.376;2023-03-31T15:33:16;3.07;;;1.90;;